Time;durP1;ratioP1;P1;durP2;ratioP2;P2;SDS_P1;SDS_P2;PMS_P1;PMS_P2;Temp;Humidity;BMP_temperature;BMP_pressure;BME280_temperature;BME280_humidity;BME280_pressure;Samples;Min_cycle;Max_cycle;Signal;HPM_P1;HPM_P2
2020/12/10 00:01:10;;;;;;;4.90;0.80;;;9.10;99.90;;;;;;5086368;28;20032;-84
2020/12/10 00:03:36;;;;;;;7.85;0.80;;;9.10;99.90;;;;;;5087692;28;20031;-83
2020/12/10 00:06:02;;;;;;;4.47;0.85;;;9.10;99.90;;;;;;5086084;28;20020;-84
2020/12/10 00:08:28;;;;;;;5.70;1.10;;;9.10;99.90;;;;;;5069520;28;20084;-84
2020/12/10 00:10:53;;;;;;;5.30;1.33;;;9.10;99.90;;;;;;5069570;28;20074;-86
2020/12/10 00:13:19;;;;;;;3.55;1.10;;;9.10;99.90;;;;;;5069505;28;20135;-87
2020/12/10 00:15:45;;;;;;;5.75;1.35;;;9.00;99.90;;;;;;5069455;28;20049;-82
2020/12/10 00:18:11;;;;;;;6.05;1.65;;;9.00;99.90;;;;;;5069715;28;20028;-82
2020/12/10 00:20:36;;;;;;;11.13;1.73;;;9.00;99.90;;;;;;5086288;28;20028;-86
2020/12/10 00:23:02;;;;;;;5.53;1.60;;;9.00;99.90;;;;;;5069597;28;20134;-85
2020/12/10 00:25:28;;;;;;;4.97;1.40;;;8.90;99.90;;;;;;5086427;28;20032;-84
2020/12/10 00:27:54;;;;;;;7.63;1.60;;;8.90;99.90;;;;;;5086369;28;20082;-83
2020/12/10 00:30:19;;;;;;;7.80;1.73;;;8.90;99.90;;;;;;5087376;28;20032;-83
2020/12/10 00:32:45;;;;;;;7.50;2.17;;;8.80;99.90;;;;;;5069578;28;20035;-84
2020/12/10 00:35:11;;;;;;;7.95;2.03;;;8.80;99.90;;;;;;5090153;28;20374;-82
2020/12/10 00:37:37;;;;;;;7.53;1.83;;;8.80;99.90;;;;;;5089962;28;20032;-84
2020/12/10 00:40:06;;;;;;;6.75;2.15;;;8.80;99.90;;;;;;5072946;28;20053;-84
2020/12/10 00:42:32;;;;;;;7.87;2.80;;;8.70;99.90;;;;;;5089640;28;20028;-83
2020/12/10 00:44:58;;;;;;;9.43;2.88;;;8.70;99.90;;;;;;5089687;28;20032;-82
2020/12/10 00:47:23;;;;;;;14.20;3.42;;;8.60;99.90;;;;;;5089696;28;20023;-82
2020/12/10 00:49:49;;;;;;;8.18;2.40;;;8.70;99.90;;;;;;5090894;28;20084;-85
2020/12/10 00:52:16;;;;;;;6.45;2.42;;;8.70;99.90;;;;;;5072645;28;20101;-85
2020/12/10 00:54:42;;;;;;;6.57;2.58;;;8.60;99.90;;;;;;5089382;28;20031;-84
2020/12/10 00:57:09;;;;;;;8.63;2.17;;;8.60;99.90;;;;;;5072633;28;20028;-84
2020/12/10 00:59:36;;;;;;;10.80;3.22;;;8.60;99.90;;;;;;5089696;28;20035;-83
2020/12/10 01:02:01;;;;;;;10.20;2.50;;;8.60;99.90;;;;;;5089470;28;20048;-85
2020/12/10 01:04:27;;;;;;;12.38;2.75;;;8.60;99.90;;;;;;5089353;28;20024;-84
2020/12/10 01:06:53;;;;;;;9.13;2.72;;;8.60;99.90;;;;;;5089049;28;20052;-83
2020/12/10 01:09:19;;;;;;;11.68;2.22;;;8.60;99.90;;;;;;5072566;28;20509;-86
2020/12/10 01:11:44;;;;;;;11.60;2.70;;;8.60;99.90;;;;;;5072258;28;20055;-84
2020/12/10 01:14:13;;;;;;;13.82;2.50;;;8.60;99.90;;;;;;5072383;28;20032;-82
2020/12/10 01:16:39;;;;;;;10.85;2.75;;;8.50;99.90;;;;;;5090428;28;20092;-85
2020/12/10 01:19:05;;;;;;;13.70;3.22;;;8.50;99.90;;;;;;5072359;28;20047;-82
2020/12/10 01:21:33;;;;;;;10.40;3.22;;;8.50;99.90;;;;;;5071920;28;20029;-86
2020/12/10 01:24:00;;;;;;;12.27;2.92;;;8.50;99.90;;;;;;5090133;28;20036;-85
2020/12/10 01:26:31;;;;;;;11.70;3.45;;;8.50;99.90;;;;;;5072090;28;20058;-84
2020/12/10 01:28:57;;;;;;;21.50;3.58;;;8.50;99.90;;;;;;5072510;28;20028;-84
2020/12/10 01:31:23;;;;;;;14.95;3.97;;;8.50;99.90;;;;;;5071968;28;20086;-86
2020/12/10 01:33:50;;;;;;;10.52;3.20;;;8.50;99.90;;;;;;5071690;28;20032;-83
2020/12/10 01:36:20;;;;;;;16.77;3.67;;;8.50;99.90;;;;;;5088763;28;20024;-82
2020/12/10 01:38:47;;;;;;;16.83;3.78;;;8.50;99.90;;;;;;5089919;28;20036;-85
2020/12/10 01:41:12;;;;;;;20.30;4.05;;;8.50;99.90;;;;;;5071869;28;20367;-86
2020/12/10 01:43:39;;;;;;;14.90;3.70;;;8.50;99.90;;;;;;5089759;28;20032;-84
2020/12/10 01:46:05;;;;;;;22.95;4.90;;;8.50;99.90;;;;;;5070862;28;20032;-84
2020/12/10 01:48:33;;;;;;;24.05;4.32;;;8.50;99.90;;;;;;5088430;28;20023;-82
2020/12/10 01:50:59;;;;;;;20.27;3.60;;;8.50;99.90;;;;;;5088476;28;20383;-84
2020/12/10 01:53:24;;;;;;;20.30;3.63;;;8.50;99.90;;;;;;5088121;28;20024;-84
2020/12/10 01:55:50;;;;;;;18.15;3.70;;;8.50;99.90;;;;;;5071428;28;20036;-84
2020/12/10 01:58:16;;;;;;;23.05;4.00;;;8.50;99.90;;;;;;5088205;28;20043;-83
2020/12/10 02:00:42;;;;;;;24.98;4.88;;;8.50;99.90;;;;;;5071431;28;20033;-84
2020/12/10 02:03:08;;;;;;;22.30;4.72;;;8.50;99.90;;;;;;5087854;28;20069;-83
2020/12/10 02:05:41;;;;;;;19.60;3.63;;;8.50;99.90;;;;;;5071257;28;20486;-84
2020/12/10 02:08:06;;;;;;;19.83;4.75;;;8.50;99.90;;;;;;5088022;28;20047;-83
2020/12/10 02:10:32;;;;;;;22.40;4.68;;;8.60;99.90;;;;;;5070883;28;20432;-85
2020/12/10 02:12:58;;;;;;;25.05;3.72;;;8.70;99.90;;;;;;5071173;28;20064;-84
2020/12/10 02:15:23;;;;;;;18.83;3.95;;;8.70;99.90;;;;;;5071089;28;20066;-83
2020/12/10 02:17:49;;;;;;;24.15;4.47;;;8.80;99.90;;;;;;5071100;28;20107;-86
2020/12/10 02:20:15;;;;;;;19.92;3.63;;;8.80;99.90;;;;;;5070839;28;20032;-83
2020/12/10 02:22:40;;;;;;;28.63;4.47;;;8.90;99.90;;;;;;5087694;28;20024;-83
2020/12/10 02:25:06;;;;;;;28.52;4.82;;;8.90;99.90;;;;;;5088906;28;20050;-86
2020/12/10 02:27:32;;;;;;;17.20;4.25;;;8.90;99.90;;;;;;5070693;28;20028;-83
2020/12/10 02:29:57;;;;;;;18.65;3.97;;;8.90;99.90;;;;;;5087835;28;20051;-84
2020/12/10 02:32:23;;;;;;;24.65;4.82;;;8.90;99.90;;;;;;5088733;28;20070;-83
2020/12/10 02:34:49;;;;;;;20.77;4.75;;;8.90;99.90;;;;;;5087679;28;20116;-86
2020/12/10 02:37:14;;;;;;;31.13;5.10;;;9.00;99.90;;;;;;5070392;28;20499;-83
2020/12/10 02:39:40;;;;;;;18.75;4.43;;;8.90;99.90;;;;;;5070505;28;20028;-84
2020/12/10 02:42:06;;;;;;;24.08;4.75;;;8.90;99.90;;;;;;5070612;28;20106;-83
2020/12/10 02:44:31;;;;;;;20.17;5.60;;;8.90;99.90;;;;;;5087564;28;20035;-83
2020/12/10 02:46:57;;;;;;;20.90;4.88;;;8.90;99.90;;;;;;5070328;28;20123;-83
2020/12/10 02:49:23;;;;;;;26.08;5.35;;;8.90;99.90;;;;;;5070394;28;20024;-82
2020/12/10 02:51:48;;;;;;;23.45;5.53;;;8.90;99.90;;;;;;5087146;28;20076;-82
2020/12/10 02:54:14;;;;;;;14.82;6.32;;;8.90;99.90;;;;;;5070282;28;20028;-84
2020/12/10 02:56:40;;;;;;;25.20;6.35;;;8.90;99.90;;;;;;5069257;28;20031;-82
2020/12/10 02:59:05;;;;;;;29.08;6.35;;;8.90;99.90;;;;;;5086919;28;20193;-82
2020/12/10 03:01:35;;;;;;;25.38;6.78;;;8.90;99.90;;;;;;5086969;28;20028;-82
2020/12/10 03:04:01;;;;;;;12.52;6.22;;;9.00;99.90;;;;;;5087018;28;20024;-84
2020/12/10 03:06:27;;;;;;;26.77;7.22;;;9.00;99.90;;;;;;5069912;28;20364;-82
2020/12/10 03:08:53;;;;;;;31.30;7.72;;;9.00;99.90;;;;;;5086875;28;20510;-83
2020/12/10 03:11:20;;;;;;;29.63;7.43;;;9.10;99.90;;;;;;5069903;28;20052;-82
2020/12/10 03:13:46;;;;;;;23.92;6.25;;;9.10;99.90;;;;;;5069872;28;20032;-82
2020/12/10 03:16:11;;;;;;;30.92;7.78;;;9.10;99.90;;;;;;5087007;28;20024;-83
2020/12/10 03:18:37;;;;;;;22.58;8.07;;;9.10;99.90;;;;;;5069968;28;20502;-84
2020/12/10 03:21:03;;;;;;;27.33;8.05;;;9.00;99.90;;;;;;5069881;28;20028;-82
2020/12/10 03:23:28;;;;;;;22.27;8.65;;;9.00;99.90;;;;;;5069858;28;20059;-81
2020/12/10 03:25:54;;;;;;;24.55;8.13;;;9.00;99.90;;;;;;5069825;28;20032;-82
2020/12/10 03:28:20;;;;;;;25.45;8.50;;;9.00;99.90;;;;;;5086895;28;20446;-81
2020/12/10 03:30:45;;;;;;;31.40;8.43;;;9.00;99.90;;;;;;5069655;28;20032;-83
2020/12/10 03:33:11;;;;;;;32.38;8.00;;;8.90;99.90;;;;;;5086651;28;20112;-82
2020/12/10 03:35:37;;;;;;;15.07;6.07;;;8.90;99.90;;;;;;5069833;28;20040;-83
2020/12/10 03:38:03;;;;;;;13.48;6.65;;;8.90;99.90;;;;;;5086492;28;20035;-83
2020/12/10 03:40:28;;;;;;;22.38;7.75;;;8.90;99.90;;;;;;5069611;28;20382;-82
2020/12/10 03:42:54;;;;;;;19.92;7.75;;;8.80;99.90;;;;;;5086394;28;20120;-82
2020/12/10 03:45:20;;;;;;;20.42;7.82;;;8.80;99.90;;;;;;5086697;28;20039;-84
2020/12/10 03:47:46;;;;;;;20.88;7.07;;;8.80;99.90;;;;;;5069647;28;20058;-83
2020/12/10 03:50:11;;;;;;;21.42;7.25;;;8.80;99.90;;;;;;5069637;28;20031;-81
2020/12/10 03:52:37;;;;;;;19.15;7.50;;;8.70;99.90;;;;;;5086382;28;20343;-81
2020/12/10 03:55:04;;;;;;;18.90;7.03;;;8.70;99.90;;;;;;5069616;28;20421;-83
2020/12/10 03:57:29;;;;;;;14.60;6.65;;;8.60;99.90;;;;;;5087688;28;20036;-82
2020/12/10 03:59:55;;;;;;;20.17;8.63;;;8.60;99.90;;;;;;5069674;28;20032;-84
2020/12/10 04:02:21;;;;;;;24.20;8.77;;;8.60;99.90;;;;;;5086301;28;20410;-78
2020/12/10 04:04:49;;;;;;;24.30;8.00;;;8.60;99.90;;;;;;5086258;28;20394;-81
2020/12/10 04:07:14;;;;;;;11.02;7.47;;;8.60;99.90;;;;;;5086233;28;20123;-82
2020/12/10 04:09:40;;;;;;;19.48;6.72;;;8.60;99.90;;;;;;5090305;28;20146;-82
2020/12/10 04:12:06;;;;;;;21.83;7.45;;;8.60;99.90;;;;;;5090272;28;20110;-81
2020/12/10 04:14:31;;;;;;;17.65;6.85;;;8.60;99.90;;;;;;5090335;28;20024;-82
2020/12/10 04:16:57;;;;;;;21.52;6.90;;;8.60;99.90;;;;;;5090089;28;20442;-82
2020/12/10 04:19:23;;;;;;;20.65;7.47;;;8.50;99.90;;;;;;5073188;28;20028;-83
2020/12/10 04:21:49;;;;;;;32.25;7.72;;;8.40;99.90;;;;;;5089993;28;20402;-83
2020/12/10 04:24:14;;;;;;;39.50;7.13;;;8.30;99.90;;;;;;5089930;28;20434;-84
2020/12/10 04:26:40;;;;;;;15.23;5.90;;;8.20;99.90;;;;;;5091188;28;20095;-82
2020/12/10 04:29:06;;;;;;;20.45;5.88;;;8.10;99.90;;;;;;5073059;28;20391;-81
2020/12/10 04:31:35;;;;;;;35.35;8.52;;;8.10;99.90;;;;;;5073028;28;20438;-82
2020/12/10 04:34:01;;;;;;;85.90;8.98;;;8.20;99.90;;;;;;5089727;28;20028;-82
2020/12/10 04:36:26;;;;;;;125.45;12.13;;;8.20;99.90;;;;;;5072736;28;20097;-83
2020/12/10 04:38:52;;;;;;;88.25;11.85;;;8.30;99.90;;;;;;5072755;28;20032;-83
2020/12/10 04:41:19;;;;;;;85.22;10.65;;;8.30;99.90;;;;;;5072963;28;20127;-82
2020/12/10 04:43:45;;;;;;;90.88;11.80;;;8.30;99.90;;;;;;5072645;28;20032;-83
2020/12/10 04:46:11;;;;;;;100.18;12.82;;;8.30;99.90;;;;;;5072654;28;20032;-84
2020/12/10 04:48:37;;;;;;;116.13;13.68;;;8.40;99.90;;;;;;5089613;28;20024;-80
2020/12/10 04:51:07;;;;;;;80.45;12.30;;;8.40;99.90;;;;;;5089809;28;20024;-81
2020/12/10 04:53:32;;;;;;;135.82;16.80;;;8.40;99.90;;;;;;5072759;28;20036;-81
2020/12/10 04:56:06;;;;;;;179.95;17.35;;;8.40;99.90;;;;;;5072495;28;20036;-82
2020/12/10 04:58:33;;;;;;;65.28;11.07;;;8.40;99.90;;;;;;5089391;28;20119;-83
2020/12/10 05:01:01;;;;;;;150.68;16.08;;;8.50;99.90;;;;;;5090422;28;20024;-81
2020/12/10 05:03:28;;;;;;;92.78;13.35;;;8.50;99.90;;;;;;5089101;28;20543;-81
2020/12/10 05:06:12;;;;;;;104.03;13.02;;;8.50;99.90;;;;;;5072368;28;20410;-83
2020/12/10 05:08:38;;;;;;;91.90;14.10;;;8.50;99.90;;;;;;5073175;28;20502;-82
2020/12/10 05:11:03;;;;;;;82.35;13.82;;;8.50;99.90;;;;;;5072281;28;20024;-83
2020/12/10 05:13:29;;;;;;;88.40;13.98;;;8.60;99.90;;;;;;5071978;28;20032;-83
2020/12/10 05:15:55;;;;;;;24.10;11.77;;;8.50;99.90;;;;;;5088974;28;20039;-81
2020/12/10 05:18:21;;;;;;;20.88;10.57;;;8.50;99.90;;;;;;5072226;28;20058;-83
2020/12/10 05:20:48;;;;;;;50.42;11.85;;;8.50;99.90;;;;;;5088158;28;20056;-80
2020/12/10 05:23:27;;;;;;;84.25;11.98;;;8.40;99.90;;;;;;5088629;28;20513;-81
2020/12/10 05:25:54;;;;;;;54.25;10.85;;;8.30;99.90;;;;;;5089110;28;20081;-83
2020/12/10 05:28:21;;;;;;;97.93;12.32;;;8.30;99.90;;;;;;5088898;28;20038;-83
2020/12/10 05:31:02;;;;;;;107.30;11.38;;;8.20;99.90;;;;;;5088772;28;20048;-82
2020/12/10 05:33:28;;;;;;;161.57;13.70;;;8.20;99.90;;;;;;5089942;28;20099;-82
2020/12/10 05:36:12;;;;;;;141.73;12.73;;;8.10;99.90;;;;;;5089878;28;20028;-82
2020/12/10 05:38:51;;;;;;;170.38;14.30;;;8.10;99.90;;;;;;5088609;28;20040;-82
2020/12/10 05:41:26;;;;;;;155.52;14.02;;;8.20;99.90;;;;;;5088454;28;20530;-80
2020/12/10 05:43:52;;;;;;;122.57;13.93;;;8.20;99.90;;;;;;5088355;28;20028;-82
2020/12/10 05:46:20;;;;;;;126.13;14.02;;;8.20;99.90;;;;;;5088434;28;20051;-80
2020/12/10 05:48:47;;;;;;;136.98;13.55;;;8.20;99.90;;;;;;5088335;28;20031;-80
2020/12/10 05:51:27;;;;;;;118.43;14.52;;;8.30;99.90;;;;;;5088222;28;20024;-81
2020/12/10 05:53:55;;;;;;;;;;;8.30;99.90;;;;;;5088889;28;20134;-82
2020/12/10 05:56:32;;;;;;;88.18;13.30;;;8.30;99.90;;;;;;5088255;28;20293;-84
2020/12/10 05:59:00;;;;;;;70.82;14.18;;;8.40;99.90;;;;;;5089569;28;20032;-84
2020/12/10 06:01:35;;;;;;;87.85;15.00;;;8.40;99.90;;;;;;5087685;28;20040;-83
2020/12/10 06:04:02;;;;;;;76.00;14.35;;;8.40;99.90;;;;;;5088061;28;20024;-83
2020/12/10 06:06:29;;;;;;;74.07;15.48;;;8.40;99.90;;;;;;5071024;28;20049;-81
2020/12/10 06:09:04;;;;;;;77.60;16.75;;;8.50;99.90;;;;;;5087876;28;20028;-82
2020/12/10 06:11:32;;;;;;;94.22;16.13;;;8.50;99.90;;;;;;5089007;28;20028;-83
2020/12/10 06:14:05;;;;;;;103.22;19.67;;;8.50;99.90;;;;;;5070865;28;20040;-83
2020/12/10 06:16:33;;;;;;;158.07;20.88;;;8.50;99.90;;;;;;5087324;28;20039;-81
2020/12/10 06:19:03;;;;;;;75.97;18.08;;;8.60;99.90;;;;;;5089008;28;20029;-82
2020/12/10 06:21:45;;;;;;;112.45;20.83;;;8.50;99.90;;;;;;5087623;28;20325;-81
2020/12/10 06:24:26;;;;;;;92.03;20.00;;;8.60;99.90;;;;;;5087257;28;20054;-82
2020/12/10 06:26:52;;;;;;;109.18;20.33;;;8.60;99.90;;;;;;5087388;28;20463;-81
2020/12/10 06:29:23;;;;;;;114.85;24.70;;;8.60;99.90;;;;;;5087569;28;20024;-82
2020/12/10 06:32:13;;;;;;;156.63;25.55;;;8.60;99.90;;;;;;5087042;28;20379;-72
2020/12/10 06:34:42;;;;;;;104.30;25.00;;;8.60;99.90;;;;;;5081199;28;20172;-80
2020/12/10 06:37:20;;;;;;;154.05;28.95;;;8.70;99.90;;;;;;5088608;28;20024;-82
2020/12/10 06:39:47;;;;;;;111.47;24.92;;;8.70;99.90;;;;;;5087605;28;20046;-84
2020/12/10 06:42:13;;;;;;;107.30;27.67;;;8.70;99.90;;;;;;5088590;28;20025;-82
2020/12/10 06:44:39;;;;;;;117.07;27.65;;;8.70;99.90;;;;;;5070197;28;20028;-82
2020/12/10 06:47:06;;;;;;;119.57;26.77;;;8.70;99.90;;;;;;5088690;28;20027;-82
2020/12/10 06:49:36;;;;;;;156.63;29.90;;;8.70;99.90;;;;;;5087537;28;20061;-83
2020/12/10 06:52:15;;;;;;;142.77;31.95;;;8.70;99.90;;;;;;5070362;28;20119;-82
2020/12/10 06:55:11;;;;;;;191.73;47.83;;;8.70;99.90;;;;;;5087736;28;20078;-80
2020/12/10 06:58:13;;;;;;;143.35;31.98;;;8.80;99.90;;;;;;5087398;28;20029;-83
2020/12/10 07:01:01;;;;;;;211.88;34.25;;;8.80;99.90;;;;;;5086609;28;20044;-82
2020/12/10 07:03:34;;;;;;;199.38;34.17;;;8.80;99.90;;;;;;5072274;28;20255;-83
2020/12/10 07:06:18;;;;;;;194.88;33.92;;;8.80;99.90;;;;;;5086679;28;20086;-82
2020/12/10 07:09:04;;;;;;;172.15;35.38;;;8.70;99.90;;;;;;5086899;28;20529;-79
2020/12/10 07:11:35;;;;;;;170.20;35.95;;;8.70;99.90;;;;;;5086720;28;20496;-82
2020/12/10 07:14:02;;;;;;;183.45;36.25;;;8.80;99.90;;;;;;5086564;28;20437;-83
2020/12/10 07:16:32;;;;;;;159.07;39.40;;;8.70;99.90;;;;;;5086159;28;20552;-81
2020/12/10 07:18:58;;;;;;;160.18;35.50;;;8.70;99.90;;;;;;5086225;28;20039;-73
2020/12/10 07:21:24;;;;;;;154.13;34.53;;;8.80;99.90;;;;;;5087727;28;20024;-71
2020/12/10 07:23:51;;;;;;;139.00;33.97;;;8.80;99.90;;;;;;5087543;28;20036;-83
2020/12/10 07:26:17;;;;;;;141.77;33.67;;;8.80;99.90;;;;;;5086400;28;20031;-80
2020/12/10 07:28:46;;;;;;;107.38;31.75;;;8.80;99.90;;;;;;5068050;28;20367;-82
2020/12/10 07:31:16;;;;;;;100.70;30.20;;;8.80;99.90;;;;;;5086563;28;20062;-82
2020/12/10 07:33:42;;;;;;;105.38;28.95;;;8.80;99.90;;;;;;5086440;28;20258;-81
2020/12/10 07:36:08;;;;;;;105.45;31.00;;;8.80;99.90;;;;;;5069170;28;20050;-82
2020/12/10 07:38:34;;;;;;;85.45;28.15;;;8.80;99.90;;;;;;5069398;28;20494;-81
2020/12/10 07:41:06;;;;;;;96.75;28.77;;;8.80;99.90;;;;;;5070046;28;20114;-82
2020/12/10 07:43:33;;;;;;;89.28;26.67;;;8.80;99.90;;;;;;5089881;28;20052;-81
2020/12/10 07:45:59;;;;;;;80.93;25.27;;;8.80;99.90;;;;;;5074441;28;20059;-81
2020/12/10 07:48:25;;;;;;;80.93;25.50;;;8.80;99.90;;;;;;5073921;28;20024;-81
2020/12/10 07:50:51;;;;;;;106.10;26.98;;;8.80;99.90;;;;;;5073690;28;20031;-82
2020/12/10 07:53:17;;;;;;;101.53;28.17;;;8.80;99.90;;;;;;5090464;28;20601;-82
2020/12/10 07:56:00;;;;;;;94.85;25.20;;;8.80;99.90;;;;;;5091672;28;20092;-81
2020/12/10 07:58:44;;;;;;;69.30;22.42;;;8.70;99.90;;;;;;5073926;28;20039;-82
2020/12/10 08:01:12;;;;;;;60.13;20.65;;;8.70;99.90;;;;;;5090661;28;20115;-81
2020/12/10 08:04:03;;;;;;;60.60;19.75;;;8.70;99.90;;;;;;5092001;28;20599;-81
2020/12/10 08:06:32;;;;;;;55.83;19.02;;;8.70;99.90;;;;;;5090304;28;20040;-83
2020/12/10 08:09:00;;;;;;;51.17;18.60;;;8.70;99.90;;;;;;5090088;28;20035;-81
2020/12/10 08:11:29;;;;;;;50.25;19.35;;;8.70;99.90;;;;;;5091530;28;20036;-81
2020/12/10 08:14:07;;;;;;;56.55;18.52;;;8.70;99.90;;;;;;5090362;28;20044;-84
2020/12/10 08:16:38;;;;;;;53.08;17.50;;;8.70;99.90;;;;;;5090260;28;20505;-81
2020/12/10 08:19:12;;;;;;;62.47;19.97;;;8.70;99.90;;;;;;5091126;28;20111;-83
2020/12/10 08:21:40;;;;;;;50.58;18.95;;;8.70;99.90;;;;;;5073522;28;20069;-83
2020/12/10 08:24:06;;;;;;;64.95;20.50;;;8.60;99.90;;;;;;5091163;28;20032;-84
2020/12/10 08:26:32;;;;;;;73.07;21.55;;;8.60;99.90;;;;;;5073029;28;20085;-83
2020/12/10 08:28:58;;;;;;;73.13;21.55;;;8.60;99.90;;;;;;5073045;28;20040;-81
2020/12/10 08:31:33;;;;;;;64.80;21.70;;;8.50;99.90;;;;;;5073063;28;20032;-81
2020/12/10 08:34:00;;;;;;;87.30;22.35;;;8.50;99.90;;;;;;5089490;28;20055;-82
2020/12/10 08:36:33;;;;;;;88.70;22.13;;;8.50;99.90;;;;;;5072425;28;20036;-81
2020/12/10 08:39:02;;;;;;;67.25;21.52;;;8.50;99.90;;;;;;5089811;28;20036;-83
2020/12/10 08:41:33;;;;;;;77.10;21.35;;;8.50;99.90;;;;;;5090531;28;20537;-82
2020/12/10 08:44:03;;;;;;;73.15;20.08;;;8.50;99.90;;;;;;5090442;28;20469;-82
2020/12/10 08:46:30;;;;;;;70.30;20.52;;;8.60;99.90;;;;;;5089198;28;20020;-82
2020/12/10 08:48:57;;;;;;;66.47;19.15;;;8.50;99.90;;;;;;5089360;28;20045;-83
2020/12/10 08:51:36;;;;;;;62.05;18.95;;;8.50;99.90;;;;;;5089817;28;20024;-81
2020/12/10 08:54:04;;;;;;;55.72;17.77;;;8.50;99.90;;;;;;5088438;28;20375;-81
2020/12/10 08:56:35;;;;;;;57.33;17.70;;;8.50;99.90;;;;;;5071854;28;20068;-81
2020/12/10 08:59:02;;;;;;;59.05;18.17;;;8.60;99.90;;;;;;5089217;28;20479;-82
2020/12/10 09:01:28;;;;;;;49.08;17.15;;;8.50;99.90;;;;;;5071122;28;20197;-82
2020/12/10 09:03:53;;;;;;;53.47;19.92;;;8.50;99.90;;;;;;5071154;28;20542;-82
2020/12/10 09:06:27;;;;;;;51.30;17.05;;;8.60;99.90;;;;;;5087244;28;20060;-81
2020/12/10 09:08:53;;;;;;;48.38;16.63;;;8.60;99.90;;;;;;5072226;28;20081;-81
2020/12/10 09:11:20;;;;;;;60.33;17.85;;;8.60;99.90;;;;;;5070293;28;20111;-81
2020/12/10 09:13:50;;;;;;;57.67;17.63;;;8.70;99.90;;;;;;5087277;28;20100;-82
2020/12/10 09:16:19;;;;;;;54.90;17.27;;;8.60;99.90;;;;;;5070809;28;20032;-84
2020/12/10 09:18:45;;;;;;;;;;;8.70;99.90;;;;;;5090204;28;20040;-80
2020/12/10 09:21:15;;;;;;;57.55;18.23;;;8.70;99.90;;;;;;5089503;28;19908;-81
2020/12/10 09:23:44;;;;;;;61.28;19.45;;;8.80;99.90;;;;;;5071826;28;20051;-81
2020/12/10 09:26:14;;;;;;;64.10;17.80;;;8.80;99.90;;;;;;5089827;28;20032;-81
2020/12/10 09:28:40;;;;;;;58.95;15.45;;;8.80;99.90;;;;;;5089639;28;20028;-79
2020/12/10 09:31:06;;;;;;;45.28;14.20;;;8.80;99.90;;;;;;5088403;28;20020;-81
2020/12/10 09:33:33;;;;;;;51.67;14.10;;;8.80;99.90;;;;;;5088277;28;20442;-82
2020/12/10 09:36:00;;;;;;;52.78;12.82;;;8.80;99.90;;;;;;5087688;28;20121;-81
2020/12/10 09:38:29;;;;;;;52.13;12.93;;;8.80;99.90;;;;;;5087939;28;20085;-81
2020/12/10 09:40:56;;;;;;;46.03;12.93;;;8.90;99.90;;;;;;5089590;28;20028;-82
2020/12/10 09:43:22;;;;;;;42.83;13.65;;;8.90;99.90;;;;;;5087792;28;20076;-80
2020/12/10 09:45:54;;;;;;;34.75;11.52;;;9.00;99.90;;;;;;5088223;28;20474;-81
2020/12/10 09:48:20;;;;;;;34.55;11.52;;;9.00;99.90;;;;;;5073365;28;20020;-82
2020/12/10 09:50:46;;;;;;;31.27;12.00;;;9.00;99.90;;;;;;5071097;28;20030;-80
2020/12/10 09:53:24;;;;;;;35.80;12.00;;;9.00;99.90;;;;;;5070123;28;20042;-81
2020/12/10 09:58:20;;;;;;;35.20;11.68;;;9.10;99.90;;;;;;5088515;28;20020;-82
2020/12/10 10:00:49;;;;;;;27.48;10.15;;;9.10;99.90;;;;;;5086915;28;20032;-81
2020/12/10 10:03:19;;;;;;;28.52;11.60;;;9.20;99.90;;;;;;5088562;28;20496;-82
2020/12/10 10:05:45;;;;;;;28.98;10.45;;;9.20;99.90;;;;;;5088226;28;20032;-81
2020/12/10 10:08:14;;;;;;;25.95;9.65;;;9.20;99.90;;;;;;5088529;28;20174;-80
2020/12/10 10:10:39;;;;;;;26.63;9.63;;;9.20;99.90;;;;;;5072137;28;20024;-81
2020/12/10 10:13:05;;;;;;;26.30;10.20;;;9.30;99.90;;;;;;5089051;28;20047;-81
2020/12/10 10:15:32;;;;;;;20.35;8.30;;;9.30;99.90;;;;;;5083020;28;20027;-81
2020/12/10 10:17:58;;;;;;;20.00;7.97;;;9.40;99.90;;;;;;5109192;28;20145;-80
2020/12/10 10:20:24;;;;;;;16.88;7.57;;;9.50;99.90;;;;;;5092276;28;20052;-81
2020/12/10 10:22:52;;;;;;;17.00;7.72;;;9.60;99.90;;;;;;5088452;28;20032;-84
2020/12/10 10:25:19;;;;;;;16.38;7.63;;;9.70;99.90;;;;;;5088379;28;20195;-83
2020/12/10 10:27:45;;;;;;;13.02;6.53;;;9.80;99.90;;;;;;5088856;28;20024;-82
2020/12/10 10:30:11;;;;;;;11.57;5.72;;;9.90;99.90;;;;;;5089836;28;20030;-82
2020/12/10 10:32:37;;;;;;;13.73;6.38;;;10.00;99.90;;;;;;5072326;28;20452;-84
2020/12/10 10:35:02;;;;;;;12.75;6.93;;;10.10;99.90;;;;;;5072494;28;20024;-81
2020/12/10 10:37:48;;;;;;;12.45;6.20;;;10.10;99.90;;;;;;5072570;28;20065;-82
2020/12/10 10:40:19;;;;;;;15.43;7.35;;;10.30;99.90;;;;;;5088939;28;20028;-82
2020/12/10 10:42:46;;;;;;;12.07;7.00;;;10.30;99.90;;;;;;5088966;28;20031;-80
2020/12/10 10:45:11;;;;;;;16.95;6.63;;;10.20;99.90;;;;;;5088199;28;20038;-75
2020/12/10 10:47:38;;;;;;;11.43;5.35;;;10.20;99.90;;;;;;5089637;28;20551;-84
2020/12/10 10:50:04;;;;;;;9.27;4.65;;;10.30;99.90;;;;;;5071023;28;20032;-82
2020/12/10 10:52:31;;;;;;;8.27;4.60;;;10.50;99.90;;;;;;5087926;28;20046;-83
2020/12/10 10:55:13;;;;;;;13.70;5.25;;;10.80;99.90;;;;;;5087270;28;20517;-79
2020/12/10 10:57:40;;;;;;;7.70;4.18;;;11.40;99.90;;;;;;5087624;28;20032;-81
2020/12/10 11:00:06;;;;;;;8.07;5.07;;;12.20;99.90;;;;;;5087452;28;20051;-83
2020/12/10 11:02:32;;;;;;;15.50;5.50;;;13.00;99.90;;;;;;5088658;28;20028;-80
2020/12/10 11:05:20;;;;;;;7.05;4.53;;;13.80;99.90;;;;;;5088291;28;20131;-81
2020/12/10 11:07:45;;;;;;;5.97;2.95;;;14.50;99.90;;;;;;5085279;28;20040;-86
2020/12/10 11:10:13;;;;;;;6.45;3.65;;;15.20;99.90;;;;;;5089576;28;20123;-84
2020/12/10 11:12:41;;;;;;;6.22;3.50;;;15.80;99.90;;;;;;5088342;28;20036;-81
2020/12/10 11:15:08;;;;;;;6.97;2.78;;;16.50;99.90;;;;;;5072108;28;20315;-84
2020/12/10 11:17:34;;;;;;;6.50;2.47;;;16.90;99.90;;;;;;5088170;28;20035;-82
2020/12/10 11:20:02;;;;;;;6.82;2.85;;;16.80;97.70;;;;;;5071486;28;20029;-84
2020/12/10 11:22:28;;;;;;;3.85;1.60;;;16.20;96.30;;;;;;5088422;28;20405;-84
2020/12/10 11:24:55;;;;;;;9.68;6.32;;;15.80;96.60;;;;;;5088666;28;20455;-84
2020/12/10 11:27:21;;;;;;;4.60;1.67;;;15.40;96.60;;;;;;5089170;28;20028;-76
2020/12/10 11:29:48;;;;;;;3.97;1.92;;;15.50;97.70;;;;;;5091648;28;20471;-82
2020/12/10 11:32:13;;;;;;;5.00;2.00;;;15.60;96.90;;;;;;5072373;28;20044;-81
2020/12/10 11:34:44;;;;;;;8.43;2.20;;;15.30;95.60;;;;;;5089874;28;20427;-82
2020/12/10 11:37:11;;;;;;;5.10;2.08;;;14.80;94.80;;;;;;5089574;28;20054;-82
2020/12/10 11:39:38;;;;;;;4.43;2.00;;;14.20;95.00;;;;;;5088698;28;20362;-81
2020/12/10 11:42:24;;;;;;;5.57;2.00;;;13.80;95.50;;;;;;5089101;28;20036;-80
2020/12/10 11:44:50;;;;;;;6.70;2.35;;;13.50;96.20;;;;;;5089852;28;20165;-82
2020/12/10 11:47:16;;;;;;;6.20;2.10;;;13.40;97.00;;;;;;5072173;28;20070;-80
2020/12/10 11:49:41;;;;;;;9.98;3.03;;;13.60;97.60;;;;;;5088780;28;20678;-80
2020/12/10 11:52:07;;;;;;;5.82;1.92;;;13.90;97.90;;;;;;5090260;28;20032;-77
2020/12/10 11:54:33;;;;;;;6.75;2.25;;;14.40;98.30;;;;;;5071326;28;20123;-80
2020/12/10 11:56:59;;;;;;;7.07;2.15;;;15.00;98.00;;;;;;5089516;28;20468;-81
2020/12/10 11:59:26;;;;;;;12.55;2.83;;;15.40;96.70;;;;;;5087753;28;20020;-80
2020/12/10 12:02:13;;;;;;;10.82;2.63;;;15.70;95.90;;;;;;5089073;28;20032;-81
2020/12/10 12:04:38;;;;;;;8.88;1.98;;;16.00;95.70;;;;;;5085644;28;20032;-80
2020/12/10 12:07:04;;;;;;;7.00;2.70;;;16.20;94.80;;;;;;5087117;28;20036;-81
2020/12/10 12:09:31;;;;;;;4.68;1.70;;;15.90;93.60;;;;;;5087332;28;20085;-80
2020/12/10 12:12:02;;;;;;;3.90;1.50;;;15.40;93.60;;;;;;5087163;28;20797;-80
2020/12/10 12:14:48;;;;;;;6.63;1.80;;;15.30;94.70;;;;;;5090541;28;20032;-79
2020/12/10 12:17:14;;;;;;;5.75;1.45;;;15.70;95.30;;;;;;5088623;28;20032;-80
2020/12/10 12:19:40;;;;;;;4.07;1.38;;;16.20;95.40;;;;;;5089219;28;20044;-80
2020/12/10 12:22:05;;;;;;;4.18;1.52;;;16.60;94.60;;;;;;5071550;28;20059;-80
2020/12/10 12:24:51;;;;;;;3.67;1.50;;;16.90;94.10;;;;;;5088594;28;20390;-82
2020/12/10 12:27:18;;;;;;;4.43;1.27;;;16.90;92.90;;;;;;5090622;28;20069;-81
2020/12/10 12:29:46;;;;;;;3.67;1.48;;;16.40;91.70;;;;;;5091587;28;20424;-83
2020/12/10 12:32:18;;;;;;;6.85;1.63;;;15.70;91.50;;;;;;5093294;28;20130;-80
2020/12/10 12:34:44;;;;;;;6.55;1.42;;;15.00;91.50;;;;;;5093351;28;20030;-77
2020/12/10 12:37:10;;;;;;;6.25;1.50;;;14.40;91.70;;;;;;5094578;28;20381;-82
2020/12/10 12:39:35;;;;;;;5.70;2.13;;;13.80;92.20;;;;;;5093662;28;20331;-84
2020/12/10 12:42:06;;;;;;;13.30;4.05;;;13.40;92.70;;;;;;5095095;28;20036;-79
2020/12/10 12:44:32;;;;;;;12.85;3.75;;;13.00;93.10;;;;;;5094915;28;20051;-79
2020/12/10 12:46:58;;;;;;;6.95;2.90;;;12.70;93.50;;;;;;5093126;28;20031;-81
2020/12/10 12:49:23;;;;;;;11.85;2.08;;;12.40;93.80;;;;;;5092460;28;20020;-82
2020/12/10 12:51:56;;;;;;;7.57;2.03;;;12.20;94.20;;;;;;5093368;28;20417;-79